Time;durP1;ratioP1;P1;durP2;ratioP2;P2;SDS_P1;SDS_P2;PMS_P1;PMS_P2;Temp;Humidity;BMP_temperature;BMP_pressure;BME280_temperature;BME280_humidity;BME280_pressure;Samples;Min_cycle;Max_cycle;Signal;HPM_P1;HPM_P2
2023/05/10 00:00:04;;;;;;;2.15;1.55;;;16.70;99.90;;;;;;5088479;28;20214;-77
2023/05/10 00:02:35;;;;;;;3.20;1.48;;;16.80;99.90;;;;;;5081271;28;20562;-77
2023/05/10 00:05:07;;;;;;;5.32;1.58;;;16.90;99.90;;;;;;5089927;28;20221;-77
2023/05/10 00:07:40;;;;;;;5.32;1.52;;;17.10;99.90;;;;;;5089254;28;20676;-78
2023/05/10 00:10:12;;;;;;;1.40;1.30;;;17.10;99.90;;;;;;5087445;28;20191;-77
2023/05/10 00:12:43;;;;;;;1.67;1.27;;;17.20;99.90;;;;;;5088951;28;20569;-77
2023/05/10 08:19:06;;;;;;;5.32;1.80;;;17.90;99.90;;;;;;4977819;28;20297;-78
2023/05/10 08:21:38;;;;;;;4.88;3.17;;;17.90;99.90;;;;;;5066807;28;20279;-79
2023/05/10 08:24:09;;;;;;;7.35;3.22;;;17.90;99.90;;;;;;5068260;28;20204;-78
2023/05/10 08:26:40;;;;;;;5.93;2.80;;;17.90;99.90;;;;;;5071677;28;20192;-77
2023/05/10 08:29:15;;;;;;;5.63;2.10;;;17.90;99.90;;;;;;5074146;28;20234;-77
2023/05/10 08:31:46;;;;;;;4.80;2.05;;;17.90;99.90;;;;;;5051846;28;20188;-80
2023/05/10 08:34:21;;;;;;;5.45;1.98;;;17.90;99.90;;;;;;5060951;28;20188;-80
2023/05/10 08:36:52;;;;;;;4.20;1.88;;;17.80;99.90;;;;;;5066783;28;20187;-79
2023/05/10 08:39:23;;;;;;;3.50;1.70;;;17.80;99.90;;;;;;5071307;28;20223;-78
2023/05/10 08:41:56;;;;;;;6.50;2.20;;;17.80;99.90;;;;;;5070626;28;20196;-77
2023/05/10 08:44:28;;;;;;;7.07;2.60;;;17.80;99.90;;;;;;5068888;28;20203;-77
2023/05/10 08:47:00;;;;;;;4.22;2.38;;;17.70;99.90;;;;;;5058322;28;20188;-78
2023/05/10 08:49:35;;;;;;;5.25;2.53;;;17.70;99.90;;;;;;5075566;28;20209;-78
2023/05/10 08:52:08;;;;;;;7.82;3.55;;;17.70;99.90;;;;;;5060818;28;20195;-77
2023/05/10 08:54:40;;;;;;;7.80;3.40;;;17.60;99.90;;;;;;5069304;28;20214;-80
2023/05/10 08:57:12;;;;;;;5.28;2.83;;;17.70;99.90;;;;;;5067891;28;20302;-80
2023/05/10 08:59:43;;;;;;;9.40;3.00;;;17.70;99.90;;;;;;5051708;28;20566;-79
2023/05/10 09:02:16;;;;;;;4.78;2.70;;;17.60;99.90;;;;;;5053266;28;20280;-79
2023/05/10 09:04:50;;;;;;;9.10;3.90;;;17.60;99.90;;;;;;5064773;28;20243;-78
2023/05/10 09:07:22;;;;;;;6.32;2.90;;;17.60;99.90;;;;;;5069339;28;20727;-78
2023/05/10 09:09:53;;;;;;;5.75;2.60;;;17.60;99.90;;;;;;5067650;28;20192;-76
2023/05/10 09:12:24;;;;;;;7.00;2.58;;;17.60;99.90;;;;;;5066348;28;20211;-77
2023/05/10 09:14:57;;;;;;;6.75;2.85;;;17.60;99.90;;;;;;5064938;28;20216;-77
2023/05/10 09:17:31;;;;;;;6.85;2.40;;;17.60;99.90;;;;;;5065088;28;20649;-77
2023/05/10 09:20:05;;;;;;;7.65;2.47;;;17.60;99.90;;;;;;5060978;28;20230;-77
2023/05/10 09:22:37;;;;;;;7.30;2.72;;;17.60;99.90;;;;;;5054200;28;20223;-77
2023/05/10 09:25:10;;;;;;;9.52;3.08;;;17.50;99.90;;;;;;5076767;28;20693;-78
2023/05/10 09:27:42;;;;;;;6.20;2.13;;;17.50;99.90;;;;;;5090643;28;20238;-78
2023/05/10 09:30:17;;;;;;;6.63;2.28;;;17.50;99.90;;;;;;5087987;28;20202;-78
2023/05/10 09:32:50;;;;;;;6.82;2.45;;;17.50;99.90;;;;;;5067637;28;20195;-77
2023/05/10 09:35:24;;;;;;;7.43;2.85;;;17.50;99.90;;;;;;5068215;28;20204;-77
2023/05/10 09:37:56;;;;;;;6.25;2.85;;;17.50;99.90;;;;;;5070393;28;20199;-78
2023/05/10 09:40:29;;;;;;;8.93;3.45;;;17.50;99.90;;;;;;5067590;28;20569;-76
2023/05/10 09:43:01;;;;;;;8.77;3.40;;;17.40;99.90;;;;;;5070165;28;20207;-78
2023/05/10 09:45:33;;;;;;;7.30;3.05;;;17.40;99.90;;;;;;5072119;28;20707;-77
2023/05/10 09:48:05;;;;;;;6.20;2.67;;;17.40;99.90;;;;;;5068788;28;20214;-77
2023/05/10 09:50:38;;;;;;;8.40;3.10;;;17.40;99.90;;;;;;5072857;28;20307;-77
2023/05/10 09:53:09;;;;;;;6.35;3.08;;;17.40;99.90;;;;;;5068740;28;20545;-78
2023/05/10 09:55:44;;;;;;;6.65;2.92;;;17.40;99.90;;;;;;5069917;28;20200;-77
2023/05/10 09:58:16;;;;;;;5.63;2.88;;;17.30;99.90;;;;;;5064999;28;20200;-77
2023/05/10 10:00:51;;;;;;;7.40;2.97;;;17.40;99.90;;;;;;5068607;28;20207;-78
2023/05/10 10:03:24;;;;;;;6.60;2.90;;;17.40;99.90;;;;;;5070681;28;20278;-78
2023/05/10 10:05:57;;;;;;;6.72;2.85;;;17.30;99.90;;;;;;5065331;28;20258;-78
2023/05/10 10:08:28;;;;;;;8.23;2.88;;;17.30;99.90;;;;;;5069951;28;20666;-77
2023/05/10 10:11:00;;;;;;;7.80;2.55;;;17.30;99.90;;;;;;5069265;28;20207;-77
2023/05/10 10:13:31;;;;;;;7.50;3.20;;;17.30;99.90;;;;;;5069782;28;20196;-79
2023/05/10 10:16:03;;;;;;;7.85;3.30;;;17.30;99.90;;;;;;5066594;28;20220;-77
2023/05/10 10:18:38;;;;;;;7.80;3.38;;;17.30;99.90;;;;;;5069685;28;20196;-76
2023/05/10 10:21:11;;;;;;;10.45;3.40;;;17.30;99.90;;;;;;5068430;28;20219;-80
2023/05/10 10:23:43;;;;;;;7.60;2.85;;;17.30;99.90;;;;;;5086071;28;20207;-77
2023/05/10 10:26:15;;;;;;;5.93;2.88;;;17.30;99.90;;;;;;5074474;28;20227;-76
2023/05/10 10:28:54;;;;;;;8.18;3.35;;;17.20;99.90;;;;;;5087498;28;20225;-77
2023/05/10 10:31:35;;;;;;;6.72;3.55;;;17.20;99.90;;;;;;5072450;28;20294;-78
2023/05/10 10:34:09;;;;;;;7.70;3.10;;;17.20;99.90;;;;;;5084735;28;20191;-77
2023/05/10 10:36:48;;;;;;;9.18;3.70;;;17.20;99.90;;;;;;5070682;28;20200;-78
2023/05/10 10:39:20;;;;;;;9.13;3.67;;;17.10;99.90;;;;;;5089950;28;20199;-78
2023/05/10 10:41:55;;;;;;;12.18;7.20;;;17.10;99.90;;;;;;5080827;28;20731;-78
2023/05/10 10:44:41;;;;;;;11.88;6.47;;;17.10;99.90;;;;;;5050053;28;20206;-77
2023/05/10 10:47:32;;;;;;;8.20;4.72;;;17.10;99.90;;;;;;5069094;28;20319;-85
2023/05/10 10:50:12;;;;;;;9.85;3.67;;;17.00;99.90;;;;;;5062143;28;20559;-84
2023/05/10 10:52:49;;;;;;;7.15;3.08;;;17.00;99.90;;;;;;5068799;28;20200;-85
2023/05/10 10:55:23;;;;;;;8.93;3.80;;;16.90;99.90;;;;;;5082513;28;20233;-85
2023/05/10 10:58:00;;;;;;;6.07;2.92;;;17.00;99.90;;;;;;5090329;28;20535;-85
2023/05/10 11:00:32;;;;;;;12.05;3.65;;;17.00;99.90;;;;;;5090373;28;20295;-85
2023/05/10 11:03:06;;;;;;;8.77;3.55;;;17.00;99.90;;;;;;5062197;28;20189;-86
2023/05/10 11:05:42;;;;;;;7.35;2.78;;;17.00;99.90;;;;;;5083723;28;20214;-86
2023/05/10 11:08:28;;;;;;;8.73;3.67;;;17.00;99.90;;;;;;5093747;28;20195;-87
2023/05/10 11:11:09;;;;;;;6.30;3.38;;;17.00;99.90;;;;;;5086229;28;20197;-86
2023/05/10 11:13:45;;;;;;;8.23;3.03;;;17.00;99.90;;;;;;5088891;28;20191;-86
2023/05/10 11:16:21;;;;;;;7.65;3.03;;;17.00;99.90;;;;;;5081223;28;20199;-84
2023/05/10 11:19:02;;;;;;;9.27;3.60;;;16.90;99.90;;;;;;5084325;28;20194;-86
2023/05/10 11:21:33;;;;;;;6.10;3.28;;;16.80;99.90;;;;;;5084735;28;20187;-87
2023/05/10 11:24:15;;;;;;;8.75;3.50;;;16.80;99.90;;;;;;5087486;28;20180;-85
2023/05/10 11:26:46;;;;;;;5.97;3.00;;;16.80;99.90;;;;;;5089795;28;20211;-85
2023/05/10 11:29:18;;;;;;;7.60;3.35;;;16.80;99.90;;;;;;5080421;28;20203;-86
2023/05/10 11:31:50;;;;;;;10.45;3.20;;;16.70;99.90;;;;;;5087224;28;20199;-86
2023/05/10 11:34:29;;;;;;;6.63;3.03;;;16.70;99.90;;;;;;5065638;28;20201;-85
2023/05/10 11:37:02;;;;;;;5.47;2.65;;;16.60;99.90;;;;;;5071485;28;20188;-85
2023/05/10 11:39:35;;;;;;;6.63;2.97;;;16.60;99.90;;;;;;5092187;28;20194;-86
2023/05/10 11:42:09;;;;;;;6.93;3.03;;;16.60;99.90;;;;;;5082733;28;20199;-86
2023/05/10 11:44:40;;;;;;;6.07;2.67;;;16.60;99.90;;;;;;5072417;28;20200;-86
2023/05/10 11:47:11;;;;;;;7.82;2.90;;;16.50;99.90;;;;;;5072886;28;20231;-85
2023/05/10 11:49:45;;;;;;;5.78;3.10;;;16.50;99.90;;;;;;5058657;28;20212;-85
2023/05/10 11:52:17;;;;;;;8.32;3.67;;;16.50;99.90;;;;;;5059298;28;20202;-84
2023/05/10 11:54:57;;;;;;;8.73;4.00;;;16.40;99.90;;;;;;5072557;28;20306;-86
2023/05/10 11:57:31;;;;;;;7.90;3.75;;;16.30;99.90;;;;;;5072793;28;20207;-84
2023/05/10 12:00:03;;;;;;;9.52;3.58;;;16.30;99.90;;;;;;5072416;28;20318;-87
2023/05/10 12:02:34;;;;;;;10.68;4.18;;;16.30;99.90;;;;;;5075356;28;20258;-87
2023/05/10 12:05:07;;;;;;;8.88;3.65;;;16.30;99.90;;;;;;5072796;28;20204;-85
2023/05/10 12:07:39;;;;;;;8.50;3.00;;;16.20;99.90;;;;;;5079593;28;20216;-92
2023/05/10 12:10:14;;;;;;;7.53;3.63;;;16.20;99.90;;;;;;5073610;28;20252;-85
2023/05/10 12:12:45;;;;;;;7.93;3.78;;;16.20;99.90;;;;;;5054449;28;20223;-84
2023/05/10 12:15:22;;;;;;;8.45;3.72;;;16.20;99.90;;;;;;5067372;28;20706;-84
2023/05/10 12:17:53;;;;;;;6.45;3.50;;;16.20;99.90;;;;;;5075417;28;20219;-84
2023/05/10 12:20:30;;;;;;;8.32;3.42;;;16.20;99.90;;;;;;4907943;28;4213283;-86
2023/05/10 12:23:03;;;;;;;7.53;3.40;;;16.10;99.90;;;;;;5061835;28;20666;-85
2023/05/10 12:25:37;;;;;;;5.97;2.92;;;16.10;99.90;;;;;;5073668;28;20291;-83
2023/05/10 12:28:10;;;;;;;9.02;3.38;;;16.10;99.90;;;;;;5073963;28;20203;-83
2023/05/10 12:30:42;;;;;;;8.85;3.35;;;16.10;99.90;;;;;;5061473;28;20204;-85
2023/05/10 12:33:14;;;;;;;10.15;3.75;;;16.00;99.90;;;;;;5055823;28;20664;-84
2023/05/10 12:35:50;;;;;;;6.75;3.72;;;16.10;99.90;;;;;;5054504;28;20279;-85
2023/05/10 12:38:35;;;;;;;6.93;3.50;;;16.10;99.90;;;;;;5053119;28;20200;-87
2023/05/10 12:41:09;;;;;;;7.88;3.47;;;16.00;99.90;;;;;;5054388;28;20220;-83
2023/05/10 12:43:41;;;;;;;8.57;3.67;;;15.90;99.90;;;;;;5071076;28;20192;-83
2023/05/10 12:46:14;;;;;;;6.10;3.45;;;16.00;99.90;;;;;;5073230;28;20216;-85
2023/05/10 12:48:46;;;;;;;7.40;3.40;;;16.00;99.90;;;;;;5071524;28;20228;-83
2023/05/10 12:51:19;;;;;;;9.50;3.53;;;15.90;99.90;;;;;;5047138;28;20189;-83
2023/05/10 12:53:50;;;;;;;8.48;3.80;;;15.90;99.90;;;;;;5054658;28;20231;-84
2023/05/10 12:56:25;;;;;;;6.57;3.60;;;15.90;99.90;;;;;;5054540;28;20210;-84
2023/05/10 12:58:56;;;;;;;8.90;3.58;;;15.80;99.90;;;;;;5052912;28;20184;-85
2023/05/10 13:01:29;;;;;;;8.25;3.10;;;15.80;99.90;;;;;;5054290;28;20200;-85
2023/05/10 13:04:02;;;;;;;7.80;3.55;;;15.80;99.90;;;;;;5075414;28;20206;-85
2023/05/10 13:06:33;;;;;;;8.68;3.50;;;15.80;99.90;;;;;;5085514;28;20227;-84
2023/05/10 13:09:04;;;;;;;10.75;3.95;;;15.70;99.90;;;;;;5071534;28;20238;-84
2023/05/10 13:11:37;;;;;;;8.55;3.80;;;15.70;99.90;;;;;;5072160;28;20609;-82
2023/05/10 13:14:08;;;;;;;9.13;3.38;;;15.60;99.90;;;;;;5071700;28;20192;-85
2023/05/10 13:16:41;;;;;;;7.40;3.75;;;15.60;99.90;;;;;;5071687;28;20196;-85
2023/05/10 13:19:13;;;;;;;6.57;3.47;;;15.60;99.90;;;;;;5065757;28;20226;-84
2023/05/10 13:21:44;;;;;;;7.05;3.92;;;15.50;99.90;;;;;;5080484;28;20208;-82
2023/05/10 13:24:16;;;;;;;6.85;3.50;;;15.50;99.90;;;;;;5044141;28;20221;-83
2023/05/10 13:26:49;;;;;;;8.60;4.07;;;15.50;99.90;;;;;;5054327;28;20446;-84
2023/05/10 13:29:22;;;;;;;9.85;4.05;;;15.50;99.90;;;;;;5051760;28;20200;-84
2023/05/10 13:31:53;;;;;;;7.00;3.78;;;15.50;99.90;;;;;;5075060;28;20199;-83
2023/05/10 13:34:24;;;;;;;7.60;4.00;;;15.50;99.90;;;;;;5092072;28;20195;-83
2023/05/10 13:36:58;;;;;;;7.22;3.92;;;15.50;99.90;;;;;;5075146;28;20199;-84
2023/05/10 13:39:33;;;;;;;6.55;3.75;;;15.50;99.90;;;;;;5071807;28;20200;-84
2023/05/10 13:42:06;;;;;;;8.07;3.97;;;15.50;99.90;;;;;;5080488;28;20594;-83
2023/05/10 13:44:38;;;;;;;8.38;4.20;;;15.50;99.90;;;;;;5092768;28;20191;-84
2023/05/10 13:47:10;;;;;;;8.30;3.90;;;15.50;99.90;;;;;;5074039;28;20314;-84
2023/05/10 13:49:41;;;;;;;8.70;3.97;;;15.50;99.90;;;;;;5067394;28;20208;-84
2023/05/10 13:52:12;;;;;;;6.65;4.03;;;15.50;99.90;;;;;;5075460;28;20204;-84
2023/05/10 13:54:43;;;;;;;8.13;3.75;;;15.40;99.90;;;;;;5087734;28;20284;-83
2023/05/10 13:57:17;;;;;;;7.10;3.85;;;15.40;99.90;;;;;;5077526;28;20205;-83
2023/05/10 13:59:48;;;;;;;9.00;3.92;;;15.40;99.90;;;;;;5090010;28;20199;-85
2023/05/10 14:02:20;;;;;;;8.10;4.00;;;15.30;99.90;;;;;;5087163;28;20735;-83
2023/05/10 14:04:51;;;;;;;6.45;3.60;;;15.30;99.90;;;;;;5059526;28;20574;-84
2023/05/10 14:07:22;;;;;;;9.05;4.13;;;15.30;99.90;;;;;;5079036;28;20211;-84
2023/05/10 14:09:56;;;;;;;8.48;3.58;;;15.30;99.90;;;;;;5091452;28;20184;-83
2023/05/10 14:12:29;;;;;;;8.40;4.15;;;15.30;99.90;;;;;;5079987;28;20195;-83
2023/05/10 14:15:00;;;;;;;6.60;4.07;;;15.30;99.90;;;;;;5070503;28;20188;-84
2023/05/10 14:17:31;;;;;;;9.50;3.85;;;15.20;99.90;;;;;;5080493;28;20199;-84
2023/05/10 14:20:03;;;;;;;6.55;3.78;;;15.20;99.90;;;;;;5086316;28;20238;-82
2023/05/10 14:22:34;;;;;;;8.30;3.85;;;15.20;99.90;;;;;;5090627;28;20195;-84
2023/05/10 14:25:05;;;;;;;8.65;3.97;;;15.10;99.90;;;;;;5090464;28;20206;-83
2023/05/10 14:27:39;;;;;;;9.60;3.67;;;15.20;99.90;;;;;;5074503;28;20231;-84
2023/05/10 14:30:11;;;;;;;9.63;4.15;;;15.10;99.90;;;;;;5065237;28;20200;-85
2023/05/10 14:32:42;;;;;;;6.40;3.60;;;15.10;99.90;;;;;;5079654;28;20195;-84
2023/05/10 14:35:13;;;;;;;6.43;3.42;;;15.00;99.90;;;;;;5087716;28;20191;-84
2023/05/10 14:37:44;;;;;;;6.18;3.63;;;15.00;99.90;;;;;;5069759;28;20195;-84
2023/05/10 14:40:16;;;;;;;5.57;3.20;;;15.00;99.90;;;;;;5067789;28;20204;-84
2023/05/10 14:42:50;;;;;;;6.43;3.53;;;15.00;99.90;;;;;;5090167;28;20248;-83
2023/05/10 14:45:21;;;;;;;8.80;3.88;;;15.00;99.90;;;;;;5087847;28;20225;-84
2023/05/10 14:47:53;;;;;;;7.20;3.70;;;14.80;99.90;;;;;;5071737;28;20640;-84
2023/05/10 14:50:24;;;;;;;5.65;3.38;;;14.90;99.90;;;;;;5090225;28;20198;-84
2023/05/10 14:52:56;;;;;;;6.10;3.40;;;14.90;99.90;;;;;;5090581;28;20195;-84
2023/05/10 14:55:27;;;;;;;8.63;3.58;;;14.80;99.90;;;;;;5089680;28;20203;-85
2023/05/10 14:58:00;;;;;;;7.25;3.20;;;14.80;99.90;;;;;;5049808;28;20204;-86
2023/05/10 15:00:32;;;;;;;5.50;3.13;;;14.80;99.90;;;;;;5049701;28;20197;-86
2023/05/10 15:03:03;;;;;;;8.30;3.00;;;14.80;99.90;;;;;;5067622;28;20200;-85
2023/05/10 15:05:34;;;;;;;6.25;3.28;;;14.80;99.90;;;;;;5072249;28;20601;-85
2023/05/10 15:08:05;;;;;;;8.52;3.10;;;14.80;99.90;;;;;;5094412;28;20678;-84
2023/05/10 15:10:37;;;;;;;7.47;3.13;;;14.70;99.90;;;;;;5094124;28;20187;-84
2023/05/10 15:13:10;;;;;;;6.43;3.17;;;14.70;99.90;;;;;;5081222;28;20226;-84
2023/05/10 15:15:44;;;;;;;9.40;3.28;;;14.70;99.90;;;;;;5072727;28;20204;-85
2023/05/10 15:18:15;;;;;;;5.65;3.03;;;14.70;99.90;;;;;;5079920;28;20196;-85
2023/05/10 15:20:46;;;;;;;7.68;2.95;;;14.70;99.90;;;;;;5089879;28;20234;-85
2023/05/10 15:23:17;;;;;;;6.43;3.03;;;14.70;99.90;;;;;;5088171;28;20196;-86
2023/05/10 15:25:49;;;;;;;4.35;2.78;;;14.60;99.90;;;;;;5093658;28;20282;-86
2023/05/10 15:28:22;;;;;;;7.32;3.10;;;14.60;99.90;;;;;;5087397;28;20232;-86
2023/05/10 15:30:53;;;;;;;5.47;2.78;;;14.60;99.90;;;;;;5089703;28;20201;-85
2023/05/10 15:33:25;;;;;;;7.07;3.30;;;14.60;99.90;;;;;;5093605;28;20179;-85
2023/05/10 15:35:56;;;;;;;6.75;3.05;;;14.60;99.90;;;;;;5093785;28;20205;-85
2023/05/10 15:38:27;;;;;;;8.88;3.45;;;14.60;99.90;;;;;;5073741;28;20279;-84
2023/05/10 15:41:02;;;;;;;7.47;2.95;;;14.60;99.90;;;;;;5093852;28;20218;-85
2023/05/10 15:43:35;;;;;;;5.43;3.28;;;14.60;99.90;;;;;;5093621;28;20242;-85
2023/05/10 15:46:07;;;;;;;6.72;3.22;;;14.60;99.90;;;;;;5087457;28;20231;-85
2023/05/10 15:48:39;;;;;;;7.85;3.63;;;14.60;99.90;;;;;;5091730;28;20217;-86
2023/05/10 15:51:12;;;;;;;8.63;3.45;;;14.60;99.90;;;;;;5089881;28;20684;-86
2023/05/10 15:53:44;;;;;;;8.40;3.00;;;14.60;99.90;;;;;;5077046;28;20279;-86
2023/05/10 15:56:15;;;;;;;6.22;3.10;;;14.60;99.90;;;;;;5074325;28;20532;-86
2023/05/10 15:58:48;;;;;;;5.03;3.17;;;14.50;99.90;;;;;;5093038;28;20197;-84
2023/05/10 16:01:19;;;;;;;6.97;3.15;;;14.50;99.90;;;;;;5089132;28;20205;-85
2023/05/10 16:03:50;;;;;;;6.22;2.88;;;14.50;99.90;;;;;;5093301;28;20195;-84
2023/05/10 16:06:22;;;;;;;6.75;3.20;;;14.50;99.90;;;;;;5089477;28;20199;-85
2023/05/10 16:08:53;;;;;;;4.70;2.63;;;14.60;99.90;;;;;;5092997;28;20222;-85
2023/05/10 16:11:24;;;;;;;7.15;3.08;;;14.50;99.90;;;;;;5077130;28;20200;-84
2023/05/10 16:13:58;;;;;;;9.70;3.30;;;14.50;99.90;;;;;;5052418;28;20196;-85
2023/05/10 16:16:29;;;;;;;9.38;3.08;;;14.50;99.90;;;;;;5079666;28;20193;-85
2023/05/10 16:19:02;;;;;;;5.20;2.92;;;14.60;99.90;;;;;;5092481;28;20207;-84
2023/05/10 16:21:34;;;;;;;8.95;2.80;;;14.60;99.90;;;;;;5072618;28;20600;-84
2023/05/10 16:24:06;;;;;;;5.57;2.80;;;14.60;99.90;;;;;;5072397;28;20631;-86
2023/05/10 16:26:39;;;;;;;7.32;3.47;;;14.70;99.90;;;;;;5067449;28;20203;-84
2023/05/10 16:29:12;;;;;;;6.03;3.00;;;14.70;99.90;;;;;;5067093;28;20224;-85
2023/05/10 16:31:43;;;;;;;6.03;2.63;;;14.70;99.90;;;;;;5065570;28;20195;-85
2023/05/10 16:34:15;;;;;;;5.45;3.03;;;14.80;99.90;;;;;;5069997;28;20285;-85
2023/05/10 16:36:46;;;;;;;5.43;2.75;;;14.70;99.90;;;;;;5072128;28;20203;-86
2023/05/10 16:39:18;;;;;;;6.53;3.00;;;14.70;99.90;;;;;;5072096;28;20354;-86
2023/05/10 16:41:49;;;;;;;6.53;2.40;;;14.70;99.90;;;;;;5063057;28;20787;-85
2023/05/10 16:44:22;;;;;;;7.00;2.58;;;14.80;99.90;;;;;;5066784;28;20200;-82
2023/05/10 16:46:53;;;;;;;5.18;2.65;;;14.90;99.90;;;;;;5051871;28;20196;-85
2023/05/10 16:49:25;;;;;;;6.80;2.72;;;14.70;99.90;;;;;;5079978;28;20270;-85
2023/05/10 16:51:57;;;;;;;9.15;2.88;;;14.70;99.90;;;;;;5079168;28;20201;-83
2023/05/10 16:54:28;;;;;;;6.63;2.80;;;14.70;99.90;;;;;;5071764;28;20244;-84
2023/05/10 16:57:00;;;;;;;12.32;3.33;;;14.70;99.90;;;;;;5071117;28;20187;-84
2023/05/10 16:59:34;;;;;;;6.82;2.97;;;14.70;99.90;;;;;;5085633;28;20199;-84
2023/05/10 17:02:05;;;;;;;7.40;3.25;;;14.70;99.90;;;;;;5069644;28;20191;-83
2023/05/10 17:04:36;;;;;;;6.90;3.10;;;14.60;99.90;;;;;;5071318;28;20192;-84
2023/05/10 17:07:08;;;;;;;5.57;2.78;;;14.60;99.90;;;;;;5070978;28;20273;-83
2023/05/10 17:09:44;;;;;;;5.88;2.80;;;14.60;99.90;;;;;;5066840;28;20570;-85
2023/05/10 17:12:15;;;;;;;5.85;2.75;;;14.60;99.90;;;;;;5054457;28;20197;-85
2023/05/10 17:14:49;;;;;;;5.25;2.58;;;14.60;99.90;;;;;;5051710;28;20909;-86
2023/05/10 17:17:20;;;;;;;6.53;2.72;;;14.50;99.90;;;;;;5062292;28;20204;-85
2023/05/10 17:19:51;;;;;;;5.15;2.40;;;14.50;99.90;;;;;;5072361;28;20601;-85
2023/05/10 17:22:22;;;;;;;4.43;2.47;;;14.50;99.90;;;;;;5090174;28;20199;-85
2023/05/10 17:24:53;;;;;;;4.45;2.25;;;14.50;99.90;;;;;;5091368;28;20639;-85
2023/05/10 17:27:24;;;;;;;6.28;2.55;;;14.50;99.90;;;;;;5091377;28;20578;-85
2023/05/10 17:30:01;;;;;;;5.55;2.25;;;14.50;99.90;;;;;;5091971;28;20202;-85
2023/05/10 17:32:32;;;;;;;5.95;2.60;;;14.50;99.90;;;;;;5067324;28;20601;-85
2023/05/10 17:35:04;;;;;;;7.78;2.60;;;14.60;99.90;;;;;;5070761;28;20278;-85
2023/05/10 17:37:35;;;;;;;4.82;2.60;;;14.50;99.90;;;;;;5071128;28;20658;-85
2023/05/10 17:40:07;;;;;;;6.40;2.30;;;14.60;99.90;;;;;;5076315;28;20197;-84
2023/05/10 17:42:38;;;;;;;5.85;1.95;;;14.50;99.90;;;;;;5090528;28;20543;-84
2023/05/10 17:45:13;;;;;;;5.30;2.30;;;14.40;99.90;;;;;;5091941;28;20187;-84
2023/05/10 17:47:44;;;;;;;4.95;2.25;;;14.50;99.90;;;;;;5053141;28;20630;-85
2023/05/10 17:50:15;;;;;;;4.10;2.20;;;14.50;99.90;;;;;;5075474;28;20201;-84
2023/05/10 17:52:47;;;;;;;5.93;2.35;;;14.50;99.90;;;;;;5071482;28;20195;-82
2023/05/10 17:55:18;;;;;;;5.78;2.38;;;14.50;99.90;;;;;;5071746;28;20196;-84
2023/05/10 17:57:49;;;;;;;3.80;2.10;;;14.50;99.90;;;;;;5070460;28;20199;-85
2023/05/10 18:00:23;;;;;;;5.65;2.28;;;14.50;99.90;;;;;;5080472;28;20194;-85
2023/05/10 18:02:54;;;;;;;6.38;2.20;;;14.50;99.90;;;;;;5089083;28;20221;-85
2023/05/10 18:05:25;;;;;;;4.60;2.38;;;14.50;99.90;;;;;;5091118;28;20195;-85
2023/05/10 18:07:56;;;;;;;4.80;2.30;;;14.40;99.90;;;;;;5090731;28;20223;-85
2023/05/10 18:10:28;;;;;;;5.72;2.53;;;14.40;99.90;;;;;;5085627;28;20199;-83
2023/05/10 18:12:59;;;;;;;8.07;2.58;;;14.40;99.90;;;;;;5088767;28;20237;-84
2023/05/10 18:15:33;;;;;;;4.50;2.25;;;14.30;99.90;;;;;;5081876;28;20188;-85
2023/05/10 18:18:05;;;;;;;5.13;2.35;;;14.40;99.90;;;;;;5088904;28;20566;-83
2023/05/10 18:20:36;;;;;;;4.72;2.15;;;14.30;99.90;;;;;;5089808;28;20226;-84
2023/05/10 18:23:08;;;;;;;4.13;1.88;;;14.40;99.90;;;;;;5085351;28;20193;-85
2023/05/10 18:25:39;;;;;;;4.85;2.05;;;14.40;99.90;;;;;;5091226;28;20198;-85
2023/05/10 18:28:10;;;;;;;4.85;1.95;;;14.40;99.90;;;;;;5085298;28;20678;-85
2023/05/10 18:30:43;;;;;;;4.65;2.15;;;14.40;99.90;;;;;;5079288;28;20219;-85
2023/05/10 18:33:14;;;;;;;4.63;2.10;;;14.40;99.90;;;;;;5071917;28;20206;-85
2023/05/10 18:35:45;;;;;;;4.65;2.10;;;14.40;99.90;;;;;;5070517;28;20196;-84
2023/05/10 18:38:17;;;;;;;4.13;2.30;;;14.50;99.90;;;;;;5074177;28;20643;-84
2023/05/10 18:40:48;;;;;;;4.13;1.98;;;14.50;99.90;;;;;;5084147;28;20203;-84
2023/05/10 18:43:19;;;;;;;5.00;2.03;;;14.50;99.90;;;;;;5095483;28;20237;-84
2023/05/10 18:45:52;;;;;;;4.68;2.15;;;14.40;99.90;;;;;;5097084;28;20206;-84
2023/05/10 18:48:23;;;;;;;5.32;2.20;;;14.50;99.90;;;;;;5088407;28;20226;-82
2023/05/10 18:50:54;;;;;;;5.10;2.40;;;14.40;99.90;;;;;;5100237;28;20598;-83
2023/05/10 18:53:25;;;;;;;4.65;2.10;;;14.40;99.90;;;;;;5094702;28;20241;-82
2023/05/10 18:56:00;;;;;;;3.33;1.65;;;14.50;99.90;;;;;;5094872;28;20306;-82
2023/05/10 18:58:32;;;;;;;7.97;2.17;;;14.40;99.90;;;;;;5094528;28;20336;-82
2023/05/10 19:01:05;;;;;;;6.38;2.20;;;14.40;99.90;;;;;;5092747;28;20191;-82
2023/05/10 19:03:37;;;;;;;7.28;1.90;;;14.30;99.90;;;;;;5082151;28;20193;-83
2023/05/10 19:06:08;;;;;;;4.70;2.22;;;14.40;99.90;;;;;;5081218;28;20237;-84
2023/05/10 19:08:39;;;;;;;3.72;1.90;;;14.40;99.90;;;;;;5085282;28;20219;-85
2023/05/10 19:11:10;;;;;;;4.85;2.10;;;14.40;99.90;;;;;;5093964;28;20200;-85
2023/05/10 19:13:41;;;;;;;5.47;2.08;;;14.40;99.90;;;;;;5093997;28;20206;-83
2023/05/10 19:16:17;;;;;;;4.13;1.83;;;14.40;99.90;;;;;;5100462;28;20196;-84
2023/05/10 19:18:48;;;;;;;5.10;2.00;;;14.40;99.90;;;;;;5087965;28;20203;-83
2023/05/10 19:21:19;;;;;;;4.72;1.95;;;14.40;99.90;;;;;;5093993;28;20428;-82
2023/05/10 19:23:50;;;;;;;4.95;2.10;;;14.40;99.90;;;;;;5093784;28;20179;-82
2023/05/10 19:26:21;;;;;;;5.47;1.80;;;14.30;99.90;;;;;;5088540;28;20194;-84
2023/05/10 19:28:54;;;;;;;3.83;2.10;;;14.30;99.90;;;;;;5094131;28;20231;-83
2023/05/10 19:31:27;;;;;;;3.70;2.00;;;14.30;99.90;;;;;;5083730;28;20268;-83
2023/05/10 19:33:58;;;;;;;3.67;1.80;;;14.30;99.90;;;;;;5093867;28;20195;-83
2023/05/10 19:36:29;;;;;;;4.05;1.80;;;14.30;99.90;;;;;;5087796;28;20203;-82
2023/05/10 19:39:02;;;;;;;4.18;2.20;;;14.30;99.90;;;;;;5093304;28;20192;-83
2023/05/10 19:41:33;;;;;;;5.93;2.00;;;14.30;99.90;;;;;;5090659;28;20195;-83
2023/05/10 19:44:05;;;;;;;4.75;2.30;;;14.30;99.90;;;;;;5094322;28;20198;-85
2023/05/10 19:46:38;;;;;;;4.95;2.00;;;14.20;99.90;;;;;;5089102;28;20192;-84
2023/05/10 19:49:09;;;;;;;5.30;2.08;;;14.20;99.90;;;;;;5100703;28;20228;-85
2023/05/10 19:51:40;;;;;;;5.25;2.10;;;14.20;99.90;;;;;;5114871;28;20198;-85
2023/05/10 19:54:11;;;;;;;5.97;2.28;;;14.10;99.90;;;;;;5104924;28;20202;-85
2023/05/10 19:56:42;;;;;;;7.28;2.45;;;14.10;99.90;;;;;;5091430;28;20230;-85
2023/05/10 19:59:13;;;;;;;4.97;2.05;;;14.20;99.90;;;;;;5093154;28;20202;-83
2023/05/10 20:01:47;;;;;;;4.85;1.77;;;14.10;99.90;;;;;;5090687;28;20650;-83
2023/05/10 20:04:18;;;;;;;7.05;2.55;;;14.10;99.90;;;;;;5082895;28;20284;-83
2023/05/10 20:06:49;;;;;;;5.45;2.40;;;14.00;99.90;;;;;;5093465;28;20206;-84
2023/05/10 20:09:20;;;;;;;5.20;2.30;;;14.10;99.90;;;;;;5087344;28;20227;-84
2023/05/10 20:11:52;;;;;;;5.32;2.45;;;14.00;99.90;;;;;;5091980;28;20199;-83
2023/05/10 20:14:23;;;;;;;4.88;2.25;;;14.00;99.90;;;;;;5093836;28;20567;-84
2023/05/10 20:16:56;;;;;;;4.07;2.03;;;14.00;99.90;;;;;;5090201;28;20199;-83
2023/05/10 20:19:27;;;;;;;5.90;2.42;;;14.00;99.90;;;;;;5084754;28;20361;-84
2023/05/10 20:21:58;;;;;;;5.60;2.40;;;14.10;99.90;;;;;;5050971;28;20185;-83
2023/05/10 20:24:29;;;;;;;6.65;2.13;;;14.00;99.90;;;;;;5052975;28;20204;-85
2023/05/10 20:27:01;;;;;;;7.82;2.67;;;14.00;99.90;;;;;;5052436;28;20207;-83
2023/05/10 20:29:32;;;;;;;4.50;2.22;;;14.00;99.90;;;;;;5052509;28;21891;-84
2023/05/10 20:32:05;;;;;;;4.18;2.30;;;14.00;99.90;;;;;;5067989;28;20211;-83
2023/05/10 20:34:37;;;;;;;8.57;2.65;;;13.90;99.90;;;;;;5071034;28;20199;-84
2023/05/10 20:37:09;;;;;;;7.63;2.30;;;13.90;99.90;;;;;;5072591;28;20203;-84
2023/05/10 20:39:40;;;;;;;4.22;2.38;;;13.90;99.90;;;;;;5070340;28;20208;-84
2023/05/10 20:42:11;;;;;;;5.15;2.40;;;13.90;99.90;;;;;;5070119;28;20232;-84
2023/05/10 20:44:42;;;;;;;5.60;2.70;;;14.00;99.90;;;;;;5052921;28;20211;-84
2023/05/10 20:47:16;;;;;;;7.38;2.50;;;14.00;99.90;;;;;;5071075;28;20195;-84
2023/05/10 20:49:47;;;;;;;6.60;2.47;;;13.90;99.90;;;;;;5080203;28;20227;-85
2023/05/10 20:52:18;;;;;;;6.65;2.45;;;14.00;99.90;;;;;;5066004;28;20577;-85
2023/05/10 20:54:50;;;;;;;5.65;2.40;;;14.00;99.90;;;;;;5067916;28;20669;-85
2023/05/10 20:57:21;;;;;;;3.67;2.05;;;14.00;99.90;;;;;;5062396;28;20293;-84
2023/05/10 20:59:53;;;;;;;6.57;2.63;;;14.00;99.90;;;;;;5071563;28;20638;-84
2023/05/10 21:02:26;;;;;;;4.90;2.17;;;14.00;99.90;;;;;;5072360;28;20196;-83
2023/05/10 21:04:57;;;;;;;8.27;2.70;;;13.90;99.90;;;;;;5071421;28;20216;-84
2023/05/10 21:07:31;;;;;;;6.75;3.03;;;13.90;99.90;;;;;;5070840;28;20203;-83
2023/05/10 21:10:02;;;;;;;5.50;2.40;;;13.90;99.90;;;;;;5071366;28;20224;-84
2023/05/10 21:12:33;;;;;;;7.50;2.40;;;14.00;99.90;;;;;;5058391;28;20201;-83
2023/05/10 21:15:05;;;;;;;5.45;2.22;;;14.00;99.90;;;;;;5054668;28;20195;-84